sensor_id;sensor_type;location;lat;lon;timestamp;temperature;humidity
22578;DHT22;11455;52.390;13.028;2023-03-14T00:00:24;13.40;99.90
22578;DHT22;11455;52.390;13.028;2023-03-14T00:02:53;13.40;99.90
22578;DHT22;11455;52.390;13.028;2023-03-14T00:05:19;13.40;99.90
22578;DHT22;11455;52.390;13.028;2023-03-14T00:07:44;13.30;99.90
22578;DHT22;11455;52.390;13.028;2023-03-14T00:10:11;13.30;99.90
22578;DHT22;11455;52.390;13.028;2023-03-14T00:12:37;13.20;99.90
22578;DHT22;11455;52.390;13.028;2023-03-14T00:15:03;13.20;99.90
22578;DHT22;11455;52.390;13.028;2023-03-14T00:17:30;13.20;99.90
22578;DHT22;11455;52.390;13.028;2023-03-14T00:19:55;13.20;99.90
22578;DHT22;11455;52.390;13.028;2023-03-14T00:22:21;13.20;99.90
22578;DHT22;11455;52.390;13.028;2023-03-14T00:24:49;13.10;99.90
22578;DHT22;11455;52.390;13.028;2023-03-14T00:27:15;13.10;99.90
22578;DHT22;11455;52.390;13.028;2023-03-14T00:29:42;13.00;99.90
22578;DHT22;11455;52.390;13.028;2023-03-14T00:32:07;13.00;99.90
22578;DHT22;11455;52.390;13.028;2023-03-14T00:34:33;12.90;99.90
22578;DHT22;11455;52.390;13.028;2023-03-14T00:36:59;12.90;99.90
22578;DHT22;11455;52.390;13.028;2023-03-14T00:39:25;12.90;99.90
22578;DHT22;11455;52.390;13.028;2023-03-14T00:41:50;12.90;99.90
22578;DHT22;11455;52.390;13.028;2023-03-14T00:44:16;12.90;99.90
22578;DHT22;11455;52.390;13.028;2023-03-14T00:46:42;12.80;99.90
22578;DHT22;11455;52.390;13.028;2023-03-14T00:49:07;12.80;99.90
22578;DHT22;11455;52.390;13.028;2023-03-14T00:51:33;12.90;99.90
22578;DHT22;11455;52.390;13.028;2023-03-14T00:53:59;12.80;99.90
22578;DHT22;11455;52.390;13.028;2023-03-14T00:56:25;12.80;99.90
22578;DHT22;11455;52.390;13.028;2023-03-14T00:58:53;12.80;99.90
22578;DHT22;11455;52.390;13.028;2023-03-14T01:01:22;12.80;99.90
22578;DHT22;11455;52.390;13.028;2023-03-14T01:03:51;12.70;99.90
22578;DHT22;11455;52.390;13.028;2023-03-14T01:06:18;12.70;99.90
22578;DHT22;11455;52.390;13.028;2023-03-14T01:08:44;12.70;99.90
22578;DHT22;11455;52.390;13.028;2023-03-14T01:11:10;12.60;99.90
22578;DHT22;11455;52.390;13.028;2023-03-14T01:13:37;12.60;99.90
22578;DHT22;11455;52.390;13.028;2023-03-14T01:16:04;12.60;99.90
22578;DHT22;11455;52.390;13.028;2023-03-14T01:18:30;12.60;99.90
22578;DHT22;11455;52.390;13.028;2023-03-14T01:20:56;12.50;99.90
22578;DHT22;11455;52.390;13.028;2023-03-14T01:23:22;12.50;99.90
22578;DHT22;11455;52.390;13.028;2023-03-14T01:25:48;12.50;99.90
22578;DHT22;11455;52.390;13.028;2023-03-14T01:28:14;12.50;99.90
22578;DHT22;11455;52.390;13.028;2023-03-14T01:30:39;12.50;99.90
22578;DHT22;11455;52.390;13.028;2023-03-14T01:33:07;12.40;99.90
22578;DHT22;11455;52.390;13.028;2023-03-14T01:35:33;12.40;99.90
22578;DHT22;11455;52.390;13.028;2023-03-14T01:37:59;12.50;99.90
22578;DHT22;11455;52.390;13.028;2023-03-14T01:40:25;12.50;99.90
22578;DHT22;11455;52.390;13.028;2023-03-14T01:42:56;12.50;99.90
22578;DHT22;11455;52.390;13.028;2023-03-14T01:48:07;12.50;99.90
22578;DHT22;11455;52.390;13.028;2023-03-14T01:50:32;12.50;99.90
22578;DHT22;11455;52.390;13.028;2023-03-14T01:52:58;12.50;99.90
22578;DHT22;11455;52.390;13.028;2023-03-14T01:55:24;12.50;99.90
22578;DHT22;11455;52.390;13.028;2023-03-14T01:57:51;12.50;99.90
22578;DHT22;11455;52.390;13.028;2023-03-14T02:00:19;12.50;99.90
22578;DHT22;11455;52.390;13.028;2023-03-14T02:02:55;12.50;99.90
22578;DHT22;11455;52.390;13.028;2023-03-14T02:05:26;12.50;99.90
22578;DHT22;11455;52.390;13.028;2023-03-14T02:07:58;12.50;99.90
22578;DHT22;11455;52.390;13.028;2023-03-14T02:10:32;12.50;99.90
22578;DHT22;11455;52.390;13.028;2023-03-14T02:13:01;12.50;99.90
22578;DHT22;11455;52.390;13.028;2023-03-14T02:15:53;12.50;99.90
22578;DHT22;11455;52.390;13.028;2023-03-14T02:18:37;12.40;99.90
22578;DHT22;11455;52.390;13.028;2023-03-14T02:24:07;12.50;99.90
22578;DHT22;11455;52.390;13.028;2023-03-14T02:29:26;12.40;99.90
22578;DHT22;11455;52.390;13.028;2023-03-14T02:31:52;12.40;99.90
22578;DHT22;11455;52.390;13.028;2023-03-14T02:34:18;12.40;99.90
22578;DHT22;11455;52.390;13.028;2023-03-14T02:36:44;12.50;99.90
22578;DHT22;11455;52.390;13.028;2023-03-14T02:39:11;12.50;99.90
22578;DHT22;11455;52.390;13.028;2023-03-14T02:41:42;12.40;99.90
22578;DHT22;11455;52.390;13.028;2023-03-14T02:44:10;12.40;99.90
22578;DHT22;11455;52.390;13.028;2023-03-14T02:46:41;12.50;99.90
22578;DHT22;11455;52.390;13.028;2023-03-14T02:49:08;12.40;99.90
22578;DHT22;11455;52.390;13.028;2023-03-14T02:51:36;12.40;99.90
22578;DHT22;11455;52.390;13.028;2023-03-14T02:54:02;12.40;99.90
22578;DHT22;11455;52.390;13.028;2023-03-14T02:56:28;12.50;99.90
22578;DHT22;11455;52.390;13.028;2023-03-14T02:58:54;12.50;99.90
22578;DHT22;11455;52.390;13.028;2023-03-14T03:01:55;12.40;99.90
22578;DHT22;11455;52.390;13.028;2023-03-14T03:04:21;12.40;99.90
22578;DHT22;11455;52.390;13.028;2023-03-14T03:06:46;12.40;99.90
22578;DHT22;11455;52.390;13.028;2023-03-14T03:09:13;12.40;99.90
22578;DHT22;11455;52.390;13.028;2023-03-14T03:11:39;12.40;99.90
22578;DHT22;11455;52.390;13.028;2023-03-14T03:14:05;12.40;99.90
22578;DHT22;11455;52.390;13.028;2023-03-14T03:16:33;12.50;99.90
22578;DHT22;11455;52.390;13.028;2023-03-14T03:18:59;12.50;99.90
22578;DHT22;11455;52.390;13.028;2023-03-14T03:21:25;12.40;99.90
22578;DHT22;11455;52.390;13.028;2023-03-14T03:23:51;12.40;99.90
22578;DHT22;11455;52.390;13.028;2023-03-14T03:26:16;12.40;99.90
22578;DHT22;11455;52.390;13.028;2023-03-14T03:28:42;12.30;99.90
22578;DHT22;11455;52.390;13.028;2023-03-14T03:31:09;12.30;99.90
22578;DHT22;11455;52.390;13.028;2023-03-14T03:33:36;12.40;99.90
22578;DHT22;11455;52.390;13.028;2023-03-14T03:36:02;12.40;99.90
22578;DHT22;11455;52.390;13.028;2023-03-14T03:38:31;12.40;99.90
22578;DHT22;11455;52.390;13.028;2023-03-14T03:41:02;12.40;99.90
22578;DHT22;11455;52.390;13.028;2023-03-14T03:43:29;12.40;99.90
22578;DHT22;11455;52.390;13.028;2023-03-14T03:46:02;12.50;99.90
22578;DHT22;11455;52.390;13.028;2023-03-14T03:48:28;12.50;99.90
22578;DHT22;11455;52.390;13.028;2023-03-14T03:50:54;12.40;99.90
22578;DHT22;11455;52.390;13.028;2023-03-14T03:53:22;12.40;99.90
22578;DHT22;11455;52.390;13.028;2023-03-14T03:55:51;12.50;99.90
22578;DHT22;11455;52.390;13.028;2023-03-14T03:58:17;12.40;99.90
22578;DHT22;11455;52.390;13.028;2023-03-14T04:00:43;12.40;99.90
22578;DHT22;11455;52.390;13.028;2023-03-14T04:03:08;12.40;99.90
22578;DHT22;11455;52.390;13.028;2023-03-14T04:05:34;12.40;99.90
22578;DHT22;11455;52.390;13.028;2023-03-14T04:08:06;12.40;99.90
22578;DHT22;11455;52.390;13.028;2023-03-14T04:10:35;12.40;99.90
22578;DHT22;11455;52.390;13.028;2023-03-14T04:13:09;12.40;99.90
22578;DHT22;11455;52.390;13.028;2023-03-14T04:15:43;12.50;99.90
22578;DHT22;11455;52.390;13.028;2023-03-14T04:18:15;12.50;99.90
22578;DHT22;11455;52.390;13.028;2023-03-14T04:20:42;12.50;99.90
22578;DHT22;11455;52.390;13.028;2023-03-14T04:23:09;12.40;99.90
22578;DHT22;11455;52.390;13.028;2023-03-14T04:25:34;12.40;99.90
22578;DHT22;11455;52.390;13.028;2023-03-14T04:28:04;12.40;99.90
22578;DHT22;11455;52.390;13.028;2023-03-14T04:30:30;12.30;99.90
22578;DHT22;11455;52.390;13.028;2023-03-14T04:32:59;12.30;99.90
22578;DHT22;11455;52.390;13.028;2023-03-14T04:35:26;12.30;99.90
22578;DHT22;11455;52.390;13.028;2023-03-14T04:37:59;12.30;99.90
22578;DHT22;11455;52.390;13.028;2023-03-14T04:40:25;12.40;99.90
22578;DHT22;11455;52.390;13.028;2023-03-14T04:42:54;12.30;99.90
22578;DHT22;11455;52.390;13.028;2023-03-14T04:45:20;12.30;99.90
22578;DHT22;11455;52.390;13.028;2023-03-14T04:47:46;12.30;99.90
22578;DHT22;11455;52.390;13.028;2023-03-14T04:50:16;12.30;99.90
22578;DHT22;11455;52.390;13.028;2023-03-14T04:52:44;12.30;99.90
22578;DHT22;11455;52.390;13.028;2023-03-14T04:55:10;12.30;99.90
22578;DHT22;11455;52.390;13.028;2023-03-14T04:57:36;12.30;99.90
22578;DHT22;11455;52.390;13.028;2023-03-14T05:00:07;12.30;99.90
22578;DHT22;11455;52.390;13.028;2023-03-14T05:02:54;12.30;99.90
22578;DHT22;11455;52.390;13.028;2023-03-14T05:05:20;12.40;99.90
22578;DHT22;11455;52.390;13.028;2023-03-14T05:08:08;12.40;99.90
22578;DHT22;11455;52.390;13.028;2023-03-14T05:10:51;12.40;99.90
22578;DHT22;11455;52.390;13.028;2023-03-14T05:13:35;12.30;99.90
22578;DHT22;11455;52.390;13.028;2023-03-14T05:16:16;12.30;99.90
22578;DHT22;11455;52.390;13.028;2023-03-14T05:19:02;12.40;99.90
22578;DHT22;11455;52.390;13.028;2023-03-14T05:21:39;12.40;99.90
22578;DHT22;11455;52.390;13.028;2023-03-14T05:24:21;12.40;99.90
22578;DHT22;11455;52.390;13.028;2023-03-14T05:27:25;12.30;99.90
22578;DHT22;11455;52.390;13.028;2023-03-14T05:30:10;12.30;99.90
22578;DHT22;11455;52.390;13.028;2023-03-14T05:32:54;12.30;99.90
22578;DHT22;11455;52.390;13.028;2023-03-14T05:35:49;12.30;99.90
22578;DHT22;11455;52.390;13.028;2023-03-14T05:38:41;12.30;99.90
22578;DHT22;11455;52.390;13.028;2023-03-14T05:41:30;12.20;99.90
22578;DHT22;11455;52.390;13.028;2023-03-14T05:44:10;12.20;99.90
22578;DHT22;11455;52.390;13.028;2023-03-14T05:46:53;12.20;99.90
22578;DHT22;11455;52.390;13.028;2023-03-14T05:49:47;12.20;99.90
22578;DHT22;11455;52.390;13.028;2023-03-14T05:52:34;12.20;99.90
22578;DHT22;11455;52.390;13.028;2023-03-14T05:55:11;12.20;99.90
22578;DHT22;11455;52.390;13.028;2023-03-14T05:58:01;12.20;99.90
22578;DHT22;11455;52.390;13.028;2023-03-14T06:00:43;12.20;99.90
22578;DHT22;11455;52.390;13.028;2023-03-14T06:03:35;12.20;99.90
22578;DHT22;11455;52.390;13.028;2023-03-14T06:06:01;12.20;99.90
22578;DHT22;11455;52.390;13.028;2023-03-14T06:08:27;12.20;99.90
22578;DHT22;11455;52.390;13.028;2023-03-14T06:10:53;12.20;99.90
22578;DHT22;11455;52.390;13.028;2023-03-14T06:13:24;12.20;99.90
22578;DHT22;11455;52.390;13.028;2023-03-14T06:15:50;12.20;99.90
22578;DHT22;11455;52.390;13.028;2023-03-14T06:18:15;12.20;99.90
22578;DHT22;11455;52.390;13.028;2023-03-14T06:20:42;12.20;99.90
22578;DHT22;11455;52.390;13.028;2023-03-14T06:23:10;12.10;99.90
22578;DHT22;11455;52.390;13.028;2023-03-14T06:25:36;12.20;99.90
22578;DHT22;11455;52.390;13.028;2023-03-14T06:28:02;12.20;99.90
22578;DHT22;11455;52.390;13.028;2023-03-14T06:30:28;12.20;99.90
22578;DHT22;11455;52.390;13.028;2023-03-14T06:32:54;12.20;99.90
22578;DHT22;11455;52.390;13.028;2023-03-14T06:35:22;12.20;99.90
22578;DHT22;11455;52.390;13.028;2023-03-14T06:37:48;12.30;99.90
22578;DHT22;11455;52.390;13.028;2023-03-14T06:40:13;12.30;99.90
22578;DHT22;11455;52.390;13.028;2023-03-14T06:43:11;12.30;99.90
22578;DHT22;11455;52.390;13.028;2023-03-14T06:45:40;12.30;99.90
22578;DHT22;11455;52.390;13.028;2023-03-14T06:48:06;12.40;99.90
22578;DHT22;11455;52.390;13.028;2023-03-14T06:50:44;12.40;99.90
22578;DHT22;11455;52.390;13.028;2023-03-14T06:53:10;12.40;99.90
22578;DHT22;11455;52.390;13.028;2023-03-14T06:55:38;12.40;99.90
22578;DHT22;11455;52.390;13.028;2023-03-14T06:58:04;12.40;98.60
22578;DHT22;11455;52.390;13.028;2023-03-14T07:00:35;12.50;99.30
22578;DHT22;11455;52.390;13.028;2023-03-14T07:03:02;12.50;95.90
22578;DHT22;11455;52.390;13.028;2023-03-14T07:05:31;12.50;99.90
22578;DHT22;11455;52.390;13.028;2023-03-14T07:07:57;12.50;99.90
22578;DHT22;11455;52.390;13.028;2023-03-14T07:10:23;12.50;99.90
22578;DHT22;11455;52.390;13.028;2023-03-14T07:12:49;12.50;99.90
22578;DHT22;11455;52.390;13.028;2023-03-14T07:15:15;12.50;99.90
22578;DHT22;11455;52.390;13.028;2023-03-14T07:17:41;12.40;99.90
22578;DHT22;11455;52.390;13.028;2023-03-14T07:20:08;12.50;99.90
22578;DHT22;11455;52.390;13.028;2023-03-14T07:22:37;12.50;99.90
22578;DHT22;11455;52.390;13.028;2023-03-14T07:25:03;12.50;99.90
22578;DHT22;11455;52.390;13.028;2023-03-14T07:27:29;12.50;99.90
22578;DHT22;11455;52.390;13.028;2023-03-14T07:29:54;12.50;99.90
22578;DHT22;11455;52.390;13.028;2023-03-14T07:32:20;12.60;99.90
22578;DHT22;11455;52.390;13.028;2023-03-14T07:34:46;12.70;95.00
22578;DHT22;11455;52.390;13.028;2023-03-14T07:37:11;12.70;84.30
22578;DHT22;11455;52.390;13.028;2023-03-14T07:39:39;12.70;79.10
22578;DHT22;11455;52.390;13.028;2023-03-14T07:42:10;12.70;83.70
22578;DHT22;11455;52.390;13.028;2023-03-14T07:45:04;12.70;77.70
22578;DHT22;11455;52.390;13.028;2023-03-14T07:47:32;12.70;84.00
22578;DHT22;11455;52.390;13.028;2023-03-14T07:49:57;12.70;79.40
22578;DHT22;11455;52.390;13.028;2023-03-14T07:52:23;12.80;71.60
22578;DHT22;11455;52.390;13.028;2023-03-14T07:54:49;12.80;65.00
22578;DHT22;11455;52.390;13.028;2023-03-14T07:57:15;12.80;60.50
22578;DHT22;11455;52.390;13.028;2023-03-14T07:59:42;12.80;69.30
22578;DHT22;11455;52.390;13.028;2023-03-14T08:02:09;12.80;67.50
22578;DHT22;11455;52.390;13.028;2023-03-14T08:04:37;12.80;52.50
22578;DHT22;11455;52.390;13.028;2023-03-14T08:07:03;12.90;55.80
22578;DHT22;11455;52.390;13.028;2023-03-14T08:09:28;12.90;45.00
22578;DHT22;11455;52.390;13.028;2023-03-14T08:11:54;12.90;45.80
22578;DHT22;11455;52.390;13.028;2023-03-14T08:14:20;12.90;39.30
22578;DHT22;11455;52.390;13.028;2023-03-14T08:16:45;12.90;30.00
22578;DHT22;11455;52.390;13.028;2023-03-14T08:19:11;12.90;23.60
22578;DHT22;11455;52.390;13.028;2023-03-14T08:21:37;12.90;26.90
22578;DHT22;11455;52.390;13.028;2023-03-14T08:24:02;12.90;28.70
22578;DHT22;11455;52.390;13.028;2023-03-14T08:26:28;12.90;25.20
22578;DHT22;11455;52.390;13.028;2023-03-14T08:28:54;12.90;23.10
22578;DHT22;11455;52.390;13.028;2023-03-14T08:31:19;12.90;25.80
22578;DHT22;11455;52.390;13.028;2023-03-14T08:33:47;12.90;26.30
22578;DHT22;11455;52.390;13.028;2023-03-14T08:36:13;12.90;25.00
22578;DHT22;11455;52.390;13.028;2023-03-14T08:38:38;12.90;16.00
22578;DHT22;11455;52.390;13.028;2023-03-14T08:41:04;12.90;21.00
22578;DHT22;11455;52.390;13.028;2023-03-14T08:43:30;12.90;13.60
22578;DHT22;11455;52.390;13.028;2023-03-14T08:45:59;13.00;6.90
22578;DHT22;11455;52.390;13.028;2023-03-14T08:48:25;13.00;6.30
22578;DHT22;11455;52.390;13.028;2023-03-14T08:50:51;13.00;4.60
22578;DHT22;11455;52.390;13.028;2023-03-14T08:53:16;13.00;6.10
22578;DHT22;11455;52.390;13.028;2023-03-14T08:55:43;13.10;7.30
22578;DHT22;11455;52.390;13.028;2023-03-14T08:58:08;13.10;2.30
22578;DHT22;11455;52.390;13.028;2023-03-14T09:00:34;13.10;3.90
22578;DHT22;11455;52.390;13.028;2023-03-14T09:03:00;13.10;2.40
22578;DHT22;11455;52.390;13.028;2023-03-14T09:05:26;13.10;1.60
22578;DHT22;11455;52.390;13.028;2023-03-14T09:07:51;13.20;1.00
22578;DHT22;11455;52.390;13.028;2023-03-14T09:10:17;13.30;1.00
22578;DHT22;11455;52.390;13.028;2023-03-14T09:12:42;13.30;1.00
22578;DHT22;11455;52.390;13.028;2023-03-14T09:15:08;13.40;1.00
22578;DHT22;11455;52.390;13.028;2023-03-14T09:17:34;13.40;1.00
22578;DHT22;11455;52.390;13.028;2023-03-14T09:20:00;13.50;1.00
22578;DHT22;11455;52.390;13.028;2023-03-14T09:22:25;13.50;1.00
22578;DHT22;11455;52.390;13.028;2023-03-14T09:24:51;13.60;1.00
22578;DHT22;11455;52.390;13.028;2023-03-14T09:27:21;13.60;1.00
22578;DHT22;11455;52.390;13.028;2023-03-14T09:29:47;13.60;1.00
22578;DHT22;11455;52.390;13.028;2023-03-14T09:32:12;13.60;1.00
22578;DHT22;11455;52.390;13.028;2023-03-14T09:34:38;13.60;1.00
22578;DHT22;11455;52.390;13.028;2023-03-14T09:37:03;13.60;1.00
22578;DHT22;11455;52.390;13.028;2023-03-14T09:39:29;13.60;1.00
22578;DHT22;11455;52.390;13.028;2023-03-14T09:41:55;13.60;1.00
22578;DHT22;11455;52.390;13.028;2023-03-14T09:44:33;13.50;1.00
22578;DHT22;11455;52.390;13.028;2023-03-14T09:47:03;13.50;1.00
22578;DHT22;11455;52.390;13.028;2023-03-14T09:49:31;13.50;1.00
22578;DHT22;11455;52.390;13.028;2023-03-14T09:51:58;13.50;1.00
22578;DHT22;11455;52.390;13.028;2023-03-14T09:54:33;13.50;1.00
22578;DHT22;11455;52.390;13.028;2023-03-14T09:57:00;13.50;1.00
22578;DHT22;11455;52.390;13.028;2023-03-14T09:59:28;13.50;1.00
22578;DHT22;11455;52.390;13.028;2023-03-14T10:01:56;13.60;1.00
22578;DHT22;11455;52.390;13.028;2023-03-14T10:04:23;13.60;1.00
22578;DHT22;11455;52.390;13.028;2023-03-14T10:06:48;13.60;1.00
22578;DHT22;11455;52.390;13.028;2023-03-14T10:09:23;13.60;1.00
22578;DHT22;11455;52.390;13.028;2023-03-14T10:11:55;13.60;1.00
22578;DHT22;11455;52.390;13.028;2023-03-14T10:14:32;13.50;1.00
22578;DHT22;11455;52.390;13.028;2023-03-14T10:17:04;13.50;1.00
22578;DHT22;11455;52.390;13.028;2023-03-14T10:19:30;13.50;1.00
22578;DHT22;11455;52.390;13.028;2023-03-14T10:21:55;13.50;1.00
22578;DHT22;11455;52.390;13.028;2023-03-14T10:24:26;13.50;1.00
22578;DHT22;11455;52.390;13.028;2023-03-14T10:26:53;13.60;1.00
22578;DHT22;11455;52.390;13.028;2023-03-14T10:29:19;13.50;1.00
22578;DHT22;11455;52.390;13.028;2023-03-14T10:34:36;13.50;1.00
22578;DHT22;11455;52.390;13.028;2023-03-14T10:37:16;13.50;1.00
22578;DHT22;11455;52.390;13.028;2023-03-14T10:39:47;13.60;1.00
22578;DHT22;11455;52.390;13.028;2023-03-14T10:42:20;13.60;1.00
22578;DHT22;11455;52.390;13.028;2023-03-14T10:44:48;13.70;1.00
22578;DHT22;11455;52.390;13.028;2023-03-14T10:47:16;13.60;1.00
22578;DHT22;11455;52.390;13.028;2023-03-14T10:49:42;13.70;1.00
22578;DHT22;11455;52.390;13.028;2023-03-14T10:54:34;13.70;1.00
22578;DHT22;11455;52.390;13.028;2023-03-14T10:57:00;13.70;1.00
22578;DHT22;11455;52.390;13.028;2023-03-14T10:59:29;13.70;1.00
22578;DHT22;11455;52.390;13.028;2023-03-14T11:07:20;13.80;1.00
22578;DHT22;11455;52.390;13.028;2023-03-14T11:12:18;13.80;1.00
22578;DHT22;11455;52.390;13.028;2023-03-14T11:14:46;13.70;1.00
22578;DHT22;11455;52.390;13.028;2023-03-14T11:27:32;13.70;1.00
22578;DHT22;11455;52.390;13.028;2023-03-14T11:30:14;13.60;1.00
22578;DHT22;11455;52.390;13.028;2023-03-14T11:35:57;13.70;1.00
22578;DHT22;11455;52.390;13.028;2023-03-14T11:40:40;13.70;1.00
22578;DHT22;11455;52.390;13.028;2023-03-14T11:45:34;13.70;1.00
22578;DHT22;11455;52.390;13.028;2023-03-14T11:48:10;13.70;1.00
22578;DHT22;11455;52.390;13.028;2023-03-14T11:50:39;13.70;1.00
22578;DHT22;11455;52.390;13.028;2023-03-14T11:53:22;13.70;1.00
22578;DHT22;11455;52.390;13.028;2023-03-14T11:55:51;13.80;1.00
22578;DHT22;11455;52.390;13.028;2023-03-14T12:00:51;13.90;1.00
22578;DHT22;11455;52.390;13.028;2023-03-14T12:03:32;13.90;1.00
22578;DHT22;11455;52.390;13.028;2023-03-14T12:11:42;13.90;1.00
22578;DHT22;11455;52.390;13.028;2023-03-14T12:16:46;13.90;1.00
22578;DHT22;11455;52.390;13.028;2023-03-14T12:19:24;13.90;1.00
22578;DHT22;11455;52.390;13.028;2023-03-14T12:21:51;13.90;1.00
22578;DHT22;11455;52.390;13.028;2023-03-14T12:24:19;13.90;1.00
22578;DHT22;11455;52.390;13.028;2023-03-14T12:26:50;13.90;1.00
22578;DHT22;11455;52.390;13.028;2023-03-14T12:29:17;13.90;1.00
22578;DHT22;11455;52.390;13.028;2023-03-14T12:31:46;13.80;1.00
22578;DHT22;11455;52.390;13.028;2023-03-14T12:41:43;13.80;6.50
22578;DHT22;11455;52.390;13.028;2023-03-14T12:46:54;13.80;64.90
22578;DHT22;11455;52.390;13.028;2023-03-14T12:49:20;13.70;99.90
22578;DHT22;11455;52.390;13.028;2023-03-14T12:51:46;13.70;99.90
22578;DHT22;11455;52.390;13.028;2023-03-14T13:01:37;13.80;99.90
22578;DHT22;11455;52.390;13.028;2023-03-14T13:04:10;13.90;99.90
22578;DHT22;11455;52.390;13.028;2023-03-14T13:11:52;14.20;1.00
22578;DHT22;11455;52.390;13.028;2023-03-14T13:14:18;14.30;1.00
22578;DHT22;11455;52.390;13.028;2023-03-14T13:16:45;14.20;1.00
22578;DHT22;11455;52.390;13.028;2023-03-14T13:19:25;14.30;1.00
22578;DHT22;11455;52.390;13.028;2023-03-14T13:21:52;14.20;1.00
22578;DHT22;11455;52.390;13.028;2023-03-14T13:24:22;14.10;1.00
22578;DHT22;11455;52.390;13.028;2023-03-14T13:26:48;14.10;1.00
22578;DHT22;11455;52.390;13.028;2023-03-14T13:29:22;14.10;1.00
22578;DHT22;11455;52.390;13.028;2023-03-14T13:31:52;14.10;1.00
22578;DHT22;11455;52.390;13.028;2023-03-14T13:34:18;14.20;1.00
22578;DHT22;11455;52.390;13.028;2023-03-14T13:36:44;14.50;1.00
22578;DHT22;11455;52.390;13.028;2023-03-14T13:39:10;14.80;1.00
22578;DHT22;11455;52.390;13.028;2023-03-14T13:41:41;14.90;1.00
22578;DHT22;11455;52.390;13.028;2023-03-14T13:44:08;15.10;1.00
22578;DHT22;11455;52.390;13.028;2023-03-14T13:46:34;15.20;1.00
22578;DHT22;11455;52.390;13.028;2023-03-14T13:49:02;15.40;1.00
22578;DHT22;11455;52.390;13.028;2023-03-14T13:51:28;15.40;1.00
22578;DHT22;11455;52.390;13.028;2023-03-14T13:53:57;15.20;1.00
22578;DHT22;11455;52.390;13.028;2023-03-14T13:56:25;15.10;1.00
22578;DHT22;11455;52.390;13.028;2023-03-14T13:58:51;15.00;1.00
22578;DHT22;11455;52.390;13.028;2023-03-14T14:01:22;15.20;1.00
22578;DHT22;11455;52.390;13.028;2023-03-14T14:03:54;15.20;1.00
22578;DHT22;11455;52.390;13.028;2023-03-14T14:06:28;15.30;1.00
22578;DHT22;11455;52.390;13.028;2023-03-14T14:08:55;15.40;1.00
22578;DHT22;11455;52.390;13.028;2023-03-14T14:11:30;15.40;1.00
22578;DHT22;11455;52.390;13.028;2023-03-14T14:13:57;15.40;1.00
22578;DHT22;11455;52.390;13.028;2023-03-14T14:16:24;15.50;1.00
22578;DHT22;11455;52.390;13.028;2023-03-14T14:18:51;15.60;1.00
22578;DHT22;11455;52.390;13.028;2023-03-14T14:21:20;15.60;1.00
22578;DHT22;11455;52.390;13.028;2023-03-14T14:23:46;15.40;1.00
22578;DHT22;11455;52.390;13.028;2023-03-14T14:26:18;15.20;1.00
22578;DHT22;11455;52.390;13.028;2023-03-14T14:28:44;15.10;1.00
22578;DHT22;11455;52.390;13.028;2023-03-14T14:31:20;15.10;1.00
22578;DHT22;11455;52.390;13.028;2023-03-14T14:34:00;15.10;1.00
22578;DHT22;11455;52.390;13.028;2023-03-14T14:36:39;15.10;1.00
22578;DHT22;11455;52.390;13.028;2023-03-14T14:39:09;15.00;1.00
22578;DHT22;11455;52.390;13.028;2023-03-14T14:41:35;14.90;1.00
22578;DHT22;11455;52.390;13.028;2023-03-14T14:44:04;14.90;1.00
22578;DHT22;11455;52.390;13.028;2023-03-14T14:46:31;14.80;1.00
22578;DHT22;11455;52.390;13.028;2023-03-14T14:48:58;14.70;1.00
22578;DHT22;11455;52.390;13.028;2023-03-14T14:51:31;14.60;1.00
22578;DHT22;11455;52.390;13.028;2023-03-14T14:56:52;14.50;1.00
22578;DHT22;11455;52.390;13.028;2023-03-14T14:59:20;14.30;1.00
22578;DHT22;11455;52.390;13.028;2023-03-14T15:01:46;14.00;1.00
22578;DHT22;11455;52.390;13.028;2023-03-14T15:04:13;12.90;99.90
22578;DHT22;11455;52.390;13.028;2023-03-14T15:06:44;11.80;99.90
22578;DHT22;11455;52.390;13.028;2023-03-14T15:09:10;10.90;99.90
22578;DHT22;11455;52.390;13.028;2023-03-14T15:11:36;10.10;99.90
22578;DHT22;11455;52.390;13.028;2023-03-14T15:14:02;9.50;99.90
22578;DHT22;11455;52.390;13.028;2023-03-14T15:16:29;9.10;99.90
22578;DHT22;11455;52.390;13.028;2023-03-14T15:18:56;8.80;99.90
22578;DHT22;11455;52.390;13.028;2023-03-14T15:21:23;8.70;99.90
22578;DHT22;11455;52.390;13.028;2023-03-14T15:23:48;8.50;99.90
22578;DHT22;11455;52.390;13.028;2023-03-14T15:26:15;8.20;99.90
22578;DHT22;11455;52.390;13.028;2023-03-14T15:28:41;8.00;99.90
22578;DHT22;11455;52.390;13.028;2023-03-14T15:31:08;7.80;99.90
22578;DHT22;11455;52.390;13.028;2023-03-14T15:33:34;7.50;99.90
22578;DHT22;11455;52.390;13.028;2023-03-14T15:36:00;7.20;99.90
22578;DHT22;11455;52.390;13.028;2023-03-14T15:38:26;7.00;99.90
22578;DHT22;11455;52.390;13.028;2023-03-14T15:40:52;6.80;99.90
22578;DHT22;11455;52.390;13.028;2023-03-14T15:43:18;6.70;99.90
22578;DHT22;11455;52.390;13.028;2023-03-14T15:45:44;6.50;99.90
22578;DHT22;11455;52.390;13.028;2023-03-14T15:48:17;6.40;99.90
22578;DHT22;11455;52.390;13.028;2023-03-14T15:50:43;6.20;99.90
22578;DHT22;11455;52.390;13.028;2023-03-14T15:53:09;5.90;99.90
22578;DHT22;11455;52.390;13.028;2023-03-14T15:55:35;5.70;99.90
22578;DHT22;11455;52.390;13.028;2023-03-14T15:58:00;5.40;99.90
22578;DHT22;11455;52.390;13.028;2023-03-14T16:00:28;5.20;99.90
22578;DHT22;11455;52.390;13.028;2023-03-14T16:02:54;5.00;99.90
22578;DHT22;11455;52.390;13.028;2023-03-14T16:05:19;4.80;99.90
22578;DHT22;11455;52.390;13.028;2023-03-14T16:07:45;4.60;99.90
22578;DHT22;11455;52.390;13.028;2023-03-14T16:10:12;4.50;99.90
22578;DHT22;11455;52.390;13.028;2023-03-14T16:12:37;4.50;99.90
22578;DHT22;11455;52.390;13.028;2023-03-14T16:15:03;4.40;99.90
22578;DHT22;11455;52.390;13.028;2023-03-14T16:17:29;4.50;99.90
22578;DHT22;11455;52.390;13.028;2023-03-14T16:19:55;4.50;99.90
22578;DHT22;11455;52.390;13.028;2023-03-14T16:22:21;4.60;99.90
22578;DHT22;11455;52.390;13.028;2023-03-14T16:24:46;4.60;99.90
22578;DHT22;11455;52.390;13.028;2023-03-14T16:27:12;4.60;99.90
22578;DHT22;11455;52.390;13.028;2023-03-14T16:29:38;4.70;99.90
22578;DHT22;11455;52.390;13.028;2023-03-14T16:32:04;4.70;99.90
22578;DHT22;11455;52.390;13.028;2023-03-14T16:34:30;4.60;99.90
22578;DHT22;11455;52.390;13.028;2023-03-14T16:36:56;4.60;99.90
22578;DHT22;11455;52.390;13.028;2023-03-14T16:39:21;4.60;99.90
22578;DHT22;11455;52.390;13.028;2023-03-14T16:41:47;4.60;99.90
22578;DHT22;11455;52.390;13.028;2023-03-14T16:44:13;4.50;99.90
22578;DHT22;11455;52.390;13.028;2023-03-14T16:46:38;4.50;99.90
22578;DHT22;11455;52.390;13.028;2023-03-14T16:49:04;4.40;99.90